Etusivu
METAR-TAF:

METAR-TAF

Lentoasemat :

Mora–Siljan

Mora, Ruotsi

Leveyspiiri: 60-57-31N, Pituuspiiri: 14-30-40E, korkeus merenpinnasta: 193 m

Tämänhetkinen sää

Tämä raportti tehtiin 40 minuuttia sitten, kello 14.20 UTC
Tuuli 10 kn idästä, vaihdellen idän/koillisen ja kaakon välillä
Lämpötila 20°C
Kosteus 30%
Ilmanpaine 1009 hPa
Näkyvyys 10 km tai enemmän

METAR: ESKM 031420Z AUTO 10010KT 070V130 9999 R16/P2000N R34///// FEW086/// 20/02 Q1009

Aika: 17:00 (15:00 UTC)


TAF: puuttuu

Säähavainnot ja -ennusteet yli 4000 lentoasemalta (METAR- ja TAF-raportit).

Käytössä olevat sääasemat on merkitty karttaan keltaisilla ja punaisilla pisteillä.

Aseta hiiri pisteen päälle nähdäksesi sääaseman nimen.

Klikkaa sitten nähdäksesi säähavainnot ja -ennusteet.

Kartan vaihtaminen: klikkaa mustalla rastilla varustettuja vihreitä pisteitä, niin voit zoomata sisään; viivalla varustettua vihreää pistettä, niin voit zoomata ulos tai vihreitä nuolia, niin pääset viereisille kartoille.


METAR-TAF: